sensor_id;sensor_type;location;lat;lon;timestamp;P1;durP1;ratioP1;P2;durP2;ratioP2
45077;SDS011;60508;42.622;25.416;2023-03-11T00:00:51;7.63;;;4.50;;
45077;SDS011;60508;42.622;25.416;2023-03-11T00:03:17;17.45;;;4.45;;
45077;SDS011;60508;42.622;25.416;2023-03-11T00:05:45;17.40;;;3.40;;
45077;SDS011;60508;42.622;25.416;2023-03-11T00:08:13;14.93;;;4.05;;
45077;SDS011;60508;42.622;25.416;2023-03-11T00:10:43;17.20;;;4.30;;
45077;SDS011;60508;42.622;25.416;2023-03-11T00:13:10;17.92;;;4.68;;
45077;SDS011;60508;42.622;25.416;2023-03-11T00:15:38;11.55;;;4.10;;
45077;SDS011;60508;42.622;25.416;2023-03-11T00:18:05;9.80;;;3.92;;
45077;SDS011;60508;42.622;25.416;2023-03-11T00:20:33;16.52;;;4.75;;
45077;SDS011;60508;42.622;25.416;2023-03-11T00:25:28;12.15;;;3.50;;
45077;SDS011;60508;42.622;25.416;2023-03-11T00:27:56;7.15;;;4.35;;
45077;SDS011;60508;42.622;25.416;2023-03-11T00:30:24;11.13;;;4.30;;
45077;SDS011;60508;42.622;25.416;2023-03-11T00:32:53;15.68;;;4.30;;
45077;SDS011;60508;42.622;25.416;2023-03-11T00:37:52;17.35;;;4.03;;
45077;SDS011;60508;42.622;25.416;2023-03-11T00:40:20;11.18;;;4.50;;
45077;SDS011;60508;42.622;25.416;2023-03-11T00:42:48;14.50;;;4.32;;
45077;SDS011;60508;42.622;25.416;2023-03-11T00:45:14;8.10;;;3.33;;
45077;SDS011;60508;42.622;25.416;2023-03-11T00:47:40;16.48;;;4.15;;
45077;SDS011;60508;42.622;25.416;2023-03-11T00:50:13;10.63;;;4.85;;
45077;SDS011;60508;42.622;25.416;2023-03-11T00:52:45;16.65;;;4.85;;
45077;SDS011;60508;42.622;25.416;2023-03-11T00:55:13;12.88;;;4.47;;
45077;SDS011;60508;42.622;25.416;2023-03-11T00:57:42;13.80;;;3.65;;
45077;SDS011;60508;42.622;25.416;2023-03-11T01:00:33;10.02;;;3.38;;
45077;SDS011;60508;42.622;25.416;2023-03-11T01:03:01;15.07;;;5.43;;
45077;SDS011;60508;42.622;25.416;2023-03-11T01:05:29;11.50;;;3.60;;
45077;SDS011;60508;42.622;25.416;2023-03-11T01:07:57;13.20;;;5.30;;
45077;SDS011;60508;42.622;25.416;2023-03-11T01:10:25;11.05;;;3.70;;
45077;SDS011;60508;42.622;25.416;2023-03-11T01:12:53;12.93;;;4.57;;
45077;SDS011;60508;42.622;25.416;2023-03-11T01:15:24;7.78;;;3.35;;
45077;SDS011;60508;42.622;25.416;2023-03-11T01:17:59;10.90;;;4.50;;
45077;SDS011;60508;42.622;25.416;2023-03-11T01:20:26;15.40;;;3.20;;
45077;SDS011;60508;42.622;25.416;2023-03-11T01:22:52;11.45;;;3.38;;
45077;SDS011;60508;42.622;25.416;2023-03-11T01:25:19;13.27;;;3.33;;
45077;SDS011;60508;42.622;25.416;2023-03-11T01:27:49;5.97;;;3.13;;
45077;SDS011;60508;42.622;25.416;2023-03-11T01:30:17;11.27;;;3.05;;
45077;SDS011;60508;42.622;25.416;2023-03-11T01:32:47;10.05;;;3.28;;
45077;SDS011;60508;42.622;25.416;2023-03-11T01:35:14;10.15;;;3.35;;
45077;SDS011;60508;42.622;25.416;2023-03-11T01:37:42;7.43;;;3.05;;
45077;SDS011;60508;42.622;25.416;2023-03-11T01:40:14;13.80;;;3.08;;
45077;SDS011;60508;42.622;25.416;2023-03-11T01:42:43;18.33;;;3.60;;
45077;SDS011;60508;42.622;25.416;2023-03-11T01:47:54;13.90;;;3.55;;
45077;SDS011;60508;42.622;25.416;2023-03-11T01:50:20;18.05;;;2.92;;
45077;SDS011;60508;42.622;25.416;2023-03-11T01:52:47;10.05;;;3.00;;
45077;SDS011;60508;42.622;25.416;2023-03-11T01:55:14;8.25;;;3.53;;
45077;SDS011;60508;42.622;25.416;2023-03-11T01:57:43;15.88;;;3.97;;
45077;SDS011;60508;42.622;25.416;2023-03-11T02:00:12;9.30;;;3.10;;
45077;SDS011;60508;42.622;25.416;2023-03-11T02:02:44;5.57;;;2.42;;
45077;SDS011;60508;42.622;25.416;2023-03-11T02:05:23;13.52;;;3.90;;
45077;SDS011;60508;42.622;25.416;2023-03-11T02:07:50;13.32;;;3.33;;
45077;SDS011;60508;42.622;25.416;2023-03-11T02:10:21;12.38;;;3.88;;
45077;SDS011;60508;42.622;25.416;2023-03-11T02:12:48;8.65;;;2.67;;
45077;SDS011;60508;42.622;25.416;2023-03-11T02:15:21;7.78;;;2.70;;
45077;SDS011;60508;42.622;25.416;2023-03-11T02:17:49;9.20;;;3.00;;
45077;SDS011;60508;42.622;25.416;2023-03-11T02:22:45;12.85;;;5.10;;
45077;SDS011;60508;42.622;25.416;2023-03-11T02:25:17;10.77;;;2.80;;
45077;SDS011;60508;42.622;25.416;2023-03-11T02:27:52;9.15;;;3.88;;
45077;SDS011;60508;42.622;25.416;2023-03-11T02:30:23;14.55;;;4.10;;
45077;SDS011;60508;42.622;25.416;2023-03-11T02:32:52;16.55;;;4.20;;
45077;SDS011;60508;42.622;25.416;2023-03-11T02:35:20;6.43;;;3.30;;
45077;SDS011;60508;42.622;25.416;2023-03-11T02:37:50;6.32;;;2.75;;
45077;SDS011;60508;42.622;25.416;2023-03-11T02:40:27;6.82;;;2.53;;
45077;SDS011;60508;42.622;25.416;2023-03-11T02:43:11;7.35;;;2.17;;
45077;SDS011;60508;42.622;25.416;2023-03-11T02:45:42;4.35;;;2.00;;
45077;SDS011;60508;42.622;25.416;2023-03-11T02:48:11;9.02;;;2.90;;
45077;SDS011;60508;42.622;25.416;2023-03-11T02:50:39;8.18;;;2.47;;
45077;SDS011;60508;42.622;25.416;2023-03-11T02:53:06;8.25;;;2.50;;
45077;SDS011;60508;42.622;25.416;2023-03-11T02:55:32;10.07;;;2.72;;
45077;SDS011;60508;42.622;25.416;2023-03-11T02:57:59;13.10;;;3.75;;
45077;SDS011;60508;42.622;25.416;2023-03-11T03:00:25;11.52;;;2.20;;
45077;SDS011;60508;42.622;25.416;2023-03-11T03:02:58;10.50;;;3.60;;
45077;SDS011;60508;42.622;25.416;2023-03-11T03:05:25;8.48;;;3.25;;
45077;SDS011;60508;42.622;25.416;2023-03-11T03:07:51;7.32;;;2.22;;
45077;SDS011;60508;42.622;25.416;2023-03-11T03:10:18;10.90;;;2.75;;
45077;SDS011;60508;42.622;25.416;2023-03-11T03:12:46;11.00;;;2.60;;
45077;SDS011;60508;42.622;25.416;2023-03-11T03:15:12;7.55;;;2.60;;
45077;SDS011;60508;42.622;25.416;2023-03-11T03:17:40;9.95;;;2.78;;
45077;SDS011;60508;42.622;25.416;2023-03-11T03:20:07;8.25;;;3.10;;
45077;SDS011;60508;42.622;25.416;2023-03-11T03:22:40;8.80;;;2.58;;
45077;SDS011;60508;42.622;25.416;2023-03-11T03:25:09;11.20;;;3.30;;
45077;SDS011;60508;42.622;25.416;2023-03-11T03:27:35;7.25;;;2.45;;
45077;SDS011;60508;42.622;25.416;2023-03-11T03:30:04;7.35;;;3.25;;
45077;SDS011;60508;42.622;25.416;2023-03-11T03:32:31;7.55;;;2.22;;
45077;SDS011;60508;42.622;25.416;2023-03-11T03:34:59;13.02;;;2.60;;
45077;SDS011;60508;42.622;25.416;2023-03-11T03:37:41;4.47;;;2.33;;
45077;SDS011;60508;42.622;25.416;2023-03-11T03:40:07;9.02;;;4.10;;
45077;SDS011;60508;42.622;25.416;2023-03-11T03:42:35;7.88;;;3.88;;
45077;SDS011;60508;42.622;25.416;2023-03-11T03:45:02;10.77;;;4.47;;
45077;SDS011;60508;42.622;25.416;2023-03-11T03:47:31;9.70;;;4.82;;
45077;SDS011;60508;42.622;25.416;2023-03-11T03:49:58;17.65;;;5.68;;
45077;SDS011;60508;42.622;25.416;2023-03-11T03:52:25;11.55;;;4.88;;
45077;SDS011;60508;42.622;25.416;2023-03-11T03:54:51;8.65;;;4.05;;
45077;SDS011;60508;42.622;25.416;2023-03-11T03:57:17;11.15;;;4.60;;
45077;SDS011;60508;42.622;25.416;2023-03-11T03:59:45;9.43;;;5.43;;
45077;SDS011;60508;42.622;25.416;2023-03-11T04:02:11;10.48;;;5.28;;
45077;SDS011;60508;42.622;25.416;2023-03-11T04:04:37;9.13;;;5.82;;
45077;SDS011;60508;42.622;25.416;2023-03-11T04:07:05;11.55;;;5.60;;
45077;SDS011;60508;42.622;25.416;2023-03-11T04:09:32;8.45;;;4.60;;
45077;SDS011;60508;42.622;25.416;2023-03-11T04:11:59;13.20;;;5.35;;
45077;SDS011;60508;42.622;25.416;2023-03-11T04:14:26;10.88;;;4.78;;
45077;SDS011;60508;42.622;25.416;2023-03-11T04:16:57;11.00;;;5.60;;
45077;SDS011;60508;42.622;25.416;2023-03-11T04:19:23;11.48;;;4.78;;
45077;SDS011;60508;42.622;25.416;2023-03-11T04:21:49;12.77;;;5.45;;
45077;SDS011;60508;42.622;25.416;2023-03-11T04:24:18;12.37;;;4.27;;
45077;SDS011;60508;42.622;25.416;2023-03-11T04:26:44;10.32;;;5.10;;
45077;SDS011;60508;42.622;25.416;2023-03-11T04:29:14;6.63;;;4.28;;
45077;SDS011;60508;42.622;25.416;2023-03-11T04:31:47;13.48;;;4.97;;
45077;SDS011;60508;42.622;25.416;2023-03-11T04:34:13;11.43;;;4.60;;
45077;SDS011;60508;42.622;25.416;2023-03-11T04:36:40;9.30;;;4.63;;
45077;SDS011;60508;42.622;25.416;2023-03-11T04:39:07;10.35;;;4.05;;
45077;SDS011;60508;42.622;25.416;2023-03-11T04:41:39;5.18;;;3.20;;
45077;SDS011;60508;42.622;25.416;2023-03-11T04:44:06;6.93;;;3.83;;
45077;SDS011;60508;42.622;25.416;2023-03-11T04:46:33;14.70;;;4.50;;
45077;SDS011;60508;42.622;25.416;2023-03-11T04:49:01;12.80;;;5.05;;
45077;SDS011;60508;42.622;25.416;2023-03-11T04:51:27;13.82;;;4.68;;
45077;SDS011;60508;42.622;25.416;2023-03-11T04:53:54;8.85;;;5.25;;
45077;SDS011;60508;42.622;25.416;2023-03-11T04:56:20;11.20;;;5.72;;
45077;SDS011;60508;42.622;25.416;2023-03-11T04:58:47;15.60;;;6.03;;
45077;SDS011;60508;42.622;25.416;2023-03-11T05:01:13;15.32;;;4.50;;
45077;SDS011;60508;42.622;25.416;2023-03-11T05:03:39;10.63;;;6.43;;
45077;SDS011;60508;42.622;25.416;2023-03-11T05:06:05;9.38;;;4.00;;
45077;SDS011;60508;42.622;25.416;2023-03-11T05:08:34;14.43;;;5.70;;
45077;SDS011;60508;42.622;25.416;2023-03-11T05:11:02;9.05;;;4.30;;
45077;SDS011;60508;42.622;25.416;2023-03-11T05:13:28;11.95;;;5.28;;
45077;SDS011;60508;42.622;25.416;2023-03-11T05:15:56;7.95;;;5.15;;
45077;SDS011;60508;42.622;25.416;2023-03-11T05:18:24;12.63;;;5.90;;
45077;SDS011;60508;42.622;25.416;2023-03-11T05:20:50;10.93;;;5.75;;
45077;SDS011;60508;42.622;25.416;2023-03-11T05:23:20;16.10;;;5.78;;
45077;SDS011;60508;42.622;25.416;2023-03-11T05:25:46;12.05;;;7.03;;
45077;SDS011;60508;42.622;25.416;2023-03-11T05:28:12;14.50;;;7.30;;
45077;SDS011;60508;42.622;25.416;2023-03-11T05:30:45;15.05;;;6.82;;
45077;SDS011;60508;42.622;25.416;2023-03-11T05:33:11;17.17;;;9.18;;
45077;SDS011;60508;42.622;25.416;2023-03-11T05:35:38;20.80;;;9.82;;
45077;SDS011;60508;42.622;25.416;2023-03-11T05:38:04;19.25;;;8.43;;
45077;SDS011;60508;42.622;25.416;2023-03-11T05:40:30;20.83;;;8.13;;
45077;SDS011;60508;42.622;25.416;2023-03-11T05:42:56;13.70;;;7.57;;
45077;SDS011;60508;42.622;25.416;2023-03-11T05:45:24;22.40;;;9.50;;
45077;SDS011;60508;42.622;25.416;2023-03-11T05:47:52;10.60;;;6.88;;
45077;SDS011;60508;42.622;25.416;2023-03-11T05:50:19;20.90;;;11.70;;
45077;SDS011;60508;42.622;25.416;2023-03-11T05:52:46;29.40;;;11.10;;
45077;SDS011;60508;42.622;25.416;2023-03-11T05:55:14;22.77;;;12.90;;
45077;SDS011;60508;42.622;25.416;2023-03-11T05:57:43;23.55;;;10.68;;
45077;SDS011;60508;42.622;25.416;2023-03-11T06:00:11;18.40;;;13.23;;
45077;SDS011;60508;42.622;25.416;2023-03-11T06:02:42;21.77;;;11.65;;
45077;SDS011;60508;42.622;25.416;2023-03-11T06:05:12;17.42;;;10.20;;
45077;SDS011;60508;42.622;25.416;2023-03-11T06:07:38;12.15;;;8.75;;
45077;SDS011;60508;42.622;25.416;2023-03-11T06:10:06;24.67;;;14.52;;
45077;SDS011;60508;42.622;25.416;2023-03-11T06:12:36;12.82;;;8.45;;
45077;SDS011;60508;42.622;25.416;2023-03-11T06:15:35;15.00;;;9.52;;
45077;SDS011;60508;42.622;25.416;2023-03-11T06:18:03;26.25;;;12.55;;
45077;SDS011;60508;42.622;25.416;2023-03-11T06:20:29;36.92;;;17.23;;
45077;SDS011;60508;42.622;25.416;2023-03-11T06:22:59;33.20;;;16.05;;
45077;SDS011;60508;42.622;25.416;2023-03-11T06:25:26;22.40;;;13.20;;
45077;SDS011;60508;42.622;25.416;2023-03-11T06:27:53;20.15;;;10.02;;
45077;SDS011;60508;42.622;25.416;2023-03-11T06:30:20;15.57;;;9.85;;
45077;SDS011;60508;42.622;25.416;2023-03-11T06:33:10;16.67;;;9.13;;
45077;SDS011;60508;42.622;25.416;2023-03-11T06:35:36;17.55;;;9.48;;
45077;SDS011;60508;42.622;25.416;2023-03-11T06:38:02;15.45;;;5.93;;
45077;SDS011;60508;42.622;25.416;2023-03-11T06:40:28;18.80;;;8.80;;
45077;SDS011;60508;42.622;25.416;2023-03-11T06:42:54;23.30;;;9.43;;
45077;SDS011;60508;42.622;25.416;2023-03-11T06:45:22;17.23;;;8.93;;
45077;SDS011;60508;42.622;25.416;2023-03-11T06:47:49;21.42;;;10.20;;
45077;SDS011;60508;42.622;25.416;2023-03-11T06:50:15;18.63;;;9.40;;
45077;SDS011;60508;42.622;25.416;2023-03-11T06:52:42;16.17;;;9.00;;
45077;SDS011;60508;42.622;25.416;2023-03-11T06:55:08;19.77;;;11.35;;
45077;SDS011;60508;42.622;25.416;2023-03-11T06:57:38;18.15;;;10.18;;
45077;SDS011;60508;42.622;25.416;2023-03-11T07:02:36;22.60;;;8.05;;
45077;SDS011;60508;42.622;25.416;2023-03-11T07:05:04;15.07;;;9.25;;
45077;SDS011;60508;42.622;25.416;2023-03-11T07:07:30;14.82;;;8.68;;
45077;SDS011;60508;42.622;25.416;2023-03-11T07:09:56;18.77;;;8.63;;
45077;SDS011;60508;42.622;25.416;2023-03-11T07:12:23;16.13;;;8.40;;
45077;SDS011;60508;42.622;25.416;2023-03-11T07:14:54;23.30;;;11.65;;
45077;SDS011;60508;42.622;25.416;2023-03-11T07:17:26;16.52;;;8.10;;
45077;SDS011;60508;42.622;25.416;2023-03-11T07:19:52;18.35;;;9.70;;
45077;SDS011;60508;42.622;25.416;2023-03-11T07:22:18;19.40;;;9.88;;
45077;SDS011;60508;42.622;25.416;2023-03-11T07:24:44;22.10;;;8.77;;
45077;SDS011;60508;42.622;25.416;2023-03-11T07:27:11;14.77;;;7.78;;
45077;SDS011;60508;42.622;25.416;2023-03-11T07:29:38;10.77;;;6.78;;
45077;SDS011;60508;42.622;25.416;2023-03-11T07:32:06;14.63;;;7.28;;
45077;SDS011;60508;42.622;25.416;2023-03-11T07:34:34;11.85;;;6.93;;
45077;SDS011;60508;42.622;25.416;2023-03-11T07:37:00;13.35;;;6.35;;
45077;SDS011;60508;42.622;25.416;2023-03-11T07:39:26;13.02;;;7.30;;
45077;SDS011;60508;42.622;25.416;2023-03-11T07:41:54;9.25;;;4.82;;
45077;SDS011;60508;42.622;25.416;2023-03-11T07:44:20;13.63;;;5.05;;
45077;SDS011;60508;42.622;25.416;2023-03-11T07:46:47;42.38;;;21.27;;
45077;SDS011;60508;42.622;25.416;2023-03-11T07:49:13;33.95;;;20.08;;
45077;SDS011;60508;42.622;25.416;2023-03-11T07:51:39;22.90;;;13.20;;
45077;SDS011;60508;42.622;25.416;2023-03-11T07:54:09;20.73;;;12.88;;
45077;SDS011;60508;42.622;25.416;2023-03-11T07:56:36;19.88;;;9.70;;
45077;SDS011;60508;42.622;25.416;2023-03-11T07:59:03;12.43;;;7.05;;
45077;SDS011;60508;42.622;25.416;2023-03-11T08:01:30;12.77;;;7.72;;
45077;SDS011;60508;42.622;25.416;2023-03-11T08:04:02;12.85;;;7.22;;
45077;SDS011;60508;42.622;25.416;2023-03-11T08:06:30;9.25;;;5.35;;
45077;SDS011;60508;42.622;25.416;2023-03-11T08:08:58;14.52;;;6.70;;
45077;SDS011;60508;42.622;25.416;2023-03-11T08:11:25;9.10;;;4.55;;
45077;SDS011;60508;42.622;25.416;2023-03-11T08:13:53;14.88;;;8.45;;
45077;SDS011;60508;42.622;25.416;2023-03-11T08:16:22;11.20;;;7.57;;
45077;SDS011;60508;42.622;25.416;2023-03-11T08:18:49;11.90;;;3.80;;
45077;SDS011;60508;42.622;25.416;2023-03-11T08:21:18;7.47;;;3.70;;
45077;SDS011;60508;42.622;25.416;2023-03-11T08:23:47;4.20;;;3.22;;
45077;SDS011;60508;42.622;25.416;2023-03-11T08:26:14;5.57;;;3.72;;
45077;SDS011;60508;42.622;25.416;2023-03-11T08:28:43;6.32;;;4.43;;
45077;SDS011;60508;42.622;25.416;2023-03-11T08:31:18;9.95;;;4.85;;
45077;SDS011;60508;42.622;25.416;2023-03-11T08:33:47;7.20;;;4.35;;
45077;SDS011;60508;42.622;25.416;2023-03-11T08:36:15;9.30;;;3.85;;
45077;SDS011;60508;42.622;25.416;2023-03-11T08:38:41;9.70;;;5.45;;
45077;SDS011;60508;42.622;25.416;2023-03-11T08:41:07;7.43;;;2.97;;
45077;SDS011;60508;42.622;25.416;2023-03-11T08:43:34;4.03;;;2.47;;
45077;SDS011;60508;42.622;25.416;2023-03-11T08:46:01;9.23;;;5.15;;
45077;SDS011;60508;42.622;25.416;2023-03-11T08:48:31;9.55;;;5.50;;
45077;SDS011;60508;42.622;25.416;2023-03-11T08:50:57;10.02;;;4.63;;
45077;SDS011;60508;42.622;25.416;2023-03-11T08:53:23;8.07;;;6.05;;
45077;SDS011;60508;42.622;25.416;2023-03-11T08:55:50;4.10;;;2.70;;
45077;SDS011;60508;42.622;25.416;2023-03-11T08:58:17;10.40;;;7.00;;
45077;SDS011;60508;42.622;25.416;2023-03-11T09:00:44;6.32;;;3.38;;
45077;SDS011;60508;42.622;25.416;2023-03-11T09:03:11;4.20;;;2.05;;
45077;SDS011;60508;42.622;25.416;2023-03-11T09:05:38;3.35;;;1.83;;
45077;SDS011;60508;42.622;25.416;2023-03-11T09:08:04;1.58;;;1.15;;
45077;SDS011;60508;42.622;25.416;2023-03-11T09:10:30;8.77;;;2.70;;
45077;SDS011;60508;42.622;25.416;2023-03-11T09:12:57;4.47;;;2.47;;
45077;SDS011;60508;42.622;25.416;2023-03-11T09:15:24;3.03;;;1.13;;
45077;SDS011;60508;42.622;25.416;2023-03-11T09:17:50;3.13;;;1.70;;
45077;SDS011;60508;42.622;25.416;2023-03-11T09:20:16;3.38;;;1.55;;
45077;SDS011;60508;42.622;25.416;2023-03-11T09:22:42;5.80;;;2.00;;
45077;SDS011;60508;42.622;25.416;2023-03-11T09:25:09;2.20;;;1.58;;
45077;SDS011;60508;42.622;25.416;2023-03-11T09:27:36;4.20;;;2.22;;
45077;SDS011;60508;42.622;25.416;2023-03-11T09:30:03;3.63;;;1.75;;
45077;SDS011;60508;42.622;25.416;2023-03-11T09:32:29;3.60;;;1.63;;
45077;SDS011;60508;42.622;25.416;2023-03-11T09:34:55;2.05;;;1.17;;
45077;SDS011;60508;42.622;25.416;2023-03-11T09:37:22;2.35;;;0.98;;
45077;SDS011;60508;42.622;25.416;2023-03-11T09:39:48;1.40;;;1.30;;
45077;SDS011;60508;42.622;25.416;2023-03-11T09:44:55;2.33;;;1.45;;
45077;SDS011;60508;42.622;25.416;2023-03-11T09:47:37;3.47;;;1.48;;
45077;SDS011;60508;42.622;25.416;2023-03-11T09:50:21;7.93;;;1.60;;
45077;SDS011;60508;42.622;25.416;2023-03-11T09:53:18;3.03;;;1.75;;
45077;SDS011;60508;42.622;25.416;2023-03-11T10:03:42;3.22;;;2.15;;
45077;SDS011;60508;42.622;25.416;2023-03-11T10:08:46;1.42;;;1.30;;
45077;SDS011;60508;42.622;25.416;2023-03-11T10:11:39;2.17;;;1.98;;
45077;SDS011;60508;42.622;25.416;2023-03-11T10:14:12;5.15;;;1.83;;
45077;SDS011;60508;42.622;25.416;2023-03-11T10:16:44;1.45;;;1.35;;
45077;SDS011;60508;42.622;25.416;2023-03-11T10:19:52;3.15;;;0.93;;
45077;SDS011;60508;42.622;25.416;2023-03-11T10:22:16;0.98;;;0.70;;
45077;SDS011;60508;42.622;25.416;2023-03-11T10:27:59;2.38;;;0.60;;
45077;SDS011;60508;42.622;25.416;2023-03-11T10:30:42;4.30;;;0.90;;
45077;SDS011;60508;42.622;25.416;2023-03-11T10:33:20;2.67;;;1.80;;
45077;SDS011;60508;42.622;25.416;2023-03-11T10:35:58;1.65;;;1.05;;
45077;SDS011;60508;42.622;25.416;2023-03-11T10:38:32;3.47;;;1.58;;
45077;SDS011;60508;42.622;25.416;2023-03-11T10:41:05;3.25;;;0.65;;
45077;SDS011;60508;42.622;25.416;2023-03-11T10:44:12;1.73;;;0.40;;
45077;SDS011;60508;42.622;25.416;2023-03-11T10:46:39;5.10;;;1.50;;
45077;SDS011;60508;42.622;25.416;2023-03-11T10:49:15;2.10;;;0.68;;
45077;SDS011;60508;42.622;25.416;2023-03-11T10:51:45;0.45;;;0.25;;
45077;SDS011;60508;42.622;25.416;2023-03-11T10:54:20;2.47;;;0.60;;
45077;SDS011;60508;42.622;25.416;2023-03-11T10:57:32;4.97;;;0.70;;
45077;SDS011;60508;42.622;25.416;2023-03-11T10:59:59;0.70;;;0.65;;
45077;SDS011;60508;42.622;25.416;2023-03-11T11:07:49;0.75;;;0.73;;
45077;SDS011;60508;42.622;25.416;2023-03-11T11:10:24;0.52;;;0.52;;
45077;SDS011;60508;42.622;25.416;2023-03-11T11:17:59;1.38;;;0.80;;
45077;SDS011;60508;42.622;25.416;2023-03-11T11:20:28;4.38;;;0.70;;
45077;SDS011;60508;42.622;25.416;2023-03-11T11:23:00;5.68;;;3.38;;
45077;SDS011;60508;42.622;25.416;2023-03-11T11:25:35;1.08;;;0.77;;
45077;SDS011;60508;42.622;25.416;2023-03-11T11:36:03;1.85;;;0.82;;
45077;SDS011;60508;42.622;25.416;2023-03-11T11:38:31;1.42;;;1.15;;
45077;SDS011;60508;42.622;25.416;2023-03-11T11:41:00;6.10;;;1.48;;
45077;SDS011;60508;42.622;25.416;2023-03-11T11:46:24;5.57;;;0.50;;
45077;SDS011;60508;42.622;25.416;2023-03-11T11:51:40;1.52;;;1.20;;
45077;SDS011;60508;42.622;25.416;2023-03-11T11:54:19;5.72;;;1.75;;
45077;SDS011;60508;42.622;25.416;2023-03-11T11:56:58;1.30;;;1.17;;
45077;SDS011;60508;42.622;25.416;2023-03-11T11:59:34;5.57;;;1.08;;
45077;SDS011;60508;42.622;25.416;2023-03-11T12:02:11;1.88;;;1.20;;
45077;SDS011;60508;42.622;25.416;2023-03-11T12:07:28;3.65;;;1.90;;
45077;SDS011;60508;42.622;25.416;2023-03-11T12:17:55;0.40;;;0.40;;
45077;SDS011;60508;42.622;25.416;2023-03-11T12:20:38;2.88;;;1.20;;
45077;SDS011;60508;42.622;25.416;2023-03-11T12:23:16;2.05;;;0.70;;
45077;SDS011;60508;42.622;25.416;2023-03-11T12:25:49;0.52;;;0.52;;
45077;SDS011;60508;42.622;25.416;2023-03-11T12:28:19;3.42;;;2.00;;
45077;SDS011;60508;42.622;25.416;2023-03-11T12:30:51;1.88;;;0.88;;
45077;SDS011;60508;42.622;25.416;2023-03-11T12:35:57;15.82;;;4.53;;
45077;SDS011;60508;42.622;25.416;2023-03-11T12:38:31;2.20;;;1.40;;
45077;SDS011;60508;42.622;25.416;2023-03-11T12:41:00;1.33;;;0.90;;
45077;SDS011;60508;42.622;25.416;2023-03-11T12:46:00;1.58;;;1.10;;
45077;SDS011;60508;42.622;25.416;2023-03-11T12:48:47;6.53;;;1.38;;
45077;SDS011;60508;42.622;25.416;2023-03-11T12:57:04;2.67;;;1.73;;
45077;SDS011;60508;42.622;25.416;2023-03-11T13:07:36;0.85;;;0.60;;
45077;SDS011;60508;42.622;25.416;2023-03-11T13:10:17;1.15;;;0.57;;
45077;SDS011;60508;42.622;25.416;2023-03-11T13:16:52;0.52;;;0.52;;
45077;SDS011;60508;42.622;25.416;2023-03-11T13:18:53;0.55;;;0.20;;
45077;SDS011;60508;42.622;25.416;2023-03-11T13:23:52;0.93;;;0.60;;
45077;SDS011;60508;42.622;25.416;2023-03-11T13:35:27;1.25;;;1.15;;
45077;SDS011;60508;42.622;25.416;2023-03-11T13:41:15;5.28;;;4.55;;
45077;SDS011;60508;42.622;25.416;2023-03-11T13:43:47;41.60;;;19.48;;
45077;SDS011;60508;42.622;25.416;2023-03-11T13:46:37;5.90;;;4.20;;
45077;SDS011;60508;42.622;25.416;2023-03-11T13:49:08;3.80;;;1.10;;
45077;SDS011;60508;42.622;25.416;2023-03-11T13:51:46;4.53;;;1.77;;
45077;SDS011;60508;42.622;25.416;2023-03-11T13:56:54;1.70;;;1.45;;
45077;SDS011;60508;42.622;25.416;2023-03-11T14:02:03;2.20;;;2.00;;
45077;SDS011;60508;42.622;25.416;2023-03-11T14:04:49;1.65;;;1.30;;
45077;SDS011;60508;42.622;25.416;2023-03-11T14:12:50;1.08;;;0.90;;
45077;SDS011;60508;42.622;25.416;2023-03-11T14:15:20;1.63;;;0.70;;
45077;SDS011;60508;42.622;25.416;2023-03-11T14:17:49;1.30;;;0.82;;
45077;SDS011;60508;42.622;25.416;2023-03-11T14:20:18;0.70;;;0.70;;
45077;SDS011;60508;42.622;25.416;2023-03-11T14:22:49;2.60;;;0.65;;
45077;SDS011;60508;42.622;25.416;2023-03-11T14:25:18;0.80;;;0.70;;
45077;SDS011;60508;42.622;25.416;2023-03-11T14:27:50;0.82;;;0.60;;
45077;SDS011;60508;42.622;25.416;2023-03-11T14:30:22;6.22;;;0.85;;
45077;SDS011;60508;42.622;25.416;2023-03-11T14:35:30;3.22;;;0.90;;
45077;SDS011;60508;42.622;25.416;2023-03-11T14:37:58;2.97;;;1.20;;
45077;SDS011;60508;42.622;25.416;2023-03-11T14:40:30;0.60;;;0.60;;
45077;SDS011;60508;42.622;25.416;2023-03-11T14:43:02;2.22;;;0.82;;
45077;SDS011;60508;42.622;25.416;2023-03-11T14:45:32;0.93;;;0.50;;
45077;SDS011;60508;42.622;25.416;2023-03-11T14:51:06;1.55;;;0.70;;
45077;SDS011;60508;42.622;25.416;2023-03-11T14:53:51;1.92;;;0.90;;
45077;SDS011;60508;42.622;25.416;2023-03-11T14:56:21;1.33;;;0.85;;
45077;SDS011;60508;42.622;25.416;2023-03-11T14:58:54;7.18;;;2.00;;
45077;SDS011;60508;42.622;25.416;2023-03-11T15:01:46;2.08;;;1.40;;
45077;SDS011;60508;42.622;25.416;2023-03-11T15:04:14;7.32;;;3.35;;
45077;SDS011;60508;42.622;25.416;2023-03-11T15:06:45;2.50;;;1.70;;
45077;SDS011;60508;42.622;25.416;2023-03-11T15:09:12;2.97;;;1.23;;
45077;SDS011;60508;42.622;25.416;2023-03-11T15:11:47;2.53;;;1.20;;
45077;SDS011;60508;42.622;25.416;2023-03-11T15:16:46;5.85;;;1.17;;
45077;SDS011;60508;42.622;25.416;2023-03-11T15:22:01;3.58;;;2.53;;
45077;SDS011;60508;42.622;25.416;2023-03-11T15:24:32;7.90;;;2.30;;
45077;SDS011;60508;42.622;25.416;2023-03-11T15:27:00;3.13;;;1.92;;
45077;SDS011;60508;42.622;25.416;2023-03-11T15:29:31;2.65;;;2.10;;
45077;SDS011;60508;42.622;25.416;2023-03-11T15:31:59;3.23;;;2.13;;
45077;SDS011;60508;42.622;25.416;2023-03-11T15:34:29;6.13;;;3.50;;
45077;SDS011;60508;42.622;25.416;2023-03-11T15:37:02;2.53;;;2.33;;
45077;SDS011;60508;42.622;25.416;2023-03-11T15:39:44;2.05;;;1.80;;
45077;SDS011;60508;42.622;25.416;2023-03-11T15:42:14;1.77;;;1.33;;
45077;SDS011;60508;42.622;25.416;2023-03-11T15:47:24;1.65;;;1.52;;
45077;SDS011;60508;42.622;25.416;2023-03-11T15:49:50;2.17;;;1.77;;
45077;SDS011;60508;42.622;25.416;2023-03-11T15:52:18;5.57;;;1.60;;
45077;SDS011;60508;42.622;25.416;2023-03-11T15:54:44;3.35;;;1.85;;
45077;SDS011;60508;42.622;25.416;2023-03-11T15:57:20;3.42;;;2.55;;
45077;SDS011;60508;42.622;25.416;2023-03-11T15:59:49;3.57;;;1.87;;
45077;SDS011;60508;42.622;25.416;2023-03-11T16:02:25;2.70;;;2.50;;
45077;SDS011;60508;42.622;25.416;2023-03-11T16:04:53;2.47;;;2.03;;
45077;SDS011;60508;42.622;25.416;2023-03-11T16:07:20;4.35;;;3.10;;
45077;SDS011;60508;42.622;25.416;2023-03-11T16:09:46;3.38;;;3.05;;
45077;SDS011;60508;42.622;25.416;2023-03-11T16:12:13;7.10;;;2.80;;
45077;SDS011;60508;42.622;25.416;2023-03-11T16:14:42;5.75;;;3.90;;
45077;SDS011;60508;42.622;25.416;2023-03-11T16:17:09;3.65;;;3.05;;
45077;SDS011;60508;42.622;25.416;2023-03-11T16:19:39;3.17;;;2.40;;
45077;SDS011;60508;42.622;25.416;2023-03-11T16:22:06;3.38;;;2.42;;
45077;SDS011;60508;42.622;25.416;2023-03-11T16:24:40;3.15;;;2.50;;
45077;SDS011;60508;42.622;25.416;2023-03-11T16:27:09;4.13;;;3.03;;
45077;SDS011;60508;42.622;25.416;2023-03-11T16:29:39;5.85;;;3.63;;
45077;SDS011;60508;42.622;25.416;2023-03-11T16:32:05;3.35;;;2.78;;
45077;SDS011;60508;42.622;25.416;2023-03-11T16:34:30;5.38;;;2.65;;
45077;SDS011;60508;42.622;25.416;2023-03-11T16:36:58;5.97;;;2.30;;
45077;SDS011;60508;42.622;25.416;2023-03-11T16:39:24;2.90;;;1.75;;
45077;SDS011;60508;42.622;25.416;2023-03-11T16:41:50;2.58;;;1.33;;
45077;SDS011;60508;42.622;25.416;2023-03-11T16:44:17;1.17;;;1.08;;
45077;SDS011;60508;42.622;25.416;2023-03-11T16:46:42;1.05;;;0.88;;
45077;SDS011;60508;42.622;25.416;2023-03-11T16:49:08;2.85;;;1.33;;